createdAt,value
2019-06-07T00:00:42.070Z,99.90
2019-06-07T00:03:21.483Z,99.90
2019-06-07T00:05:40.689Z,99.90
2019-06-07T00:08:17.207Z,99.90
2019-06-07T00:10:39.220Z,99.90
2019-06-07T00:13:08.054Z,99.90
2019-06-07T00:15:37.917Z,99.90
2019-06-07T00:18:10.274Z,99.90
2019-06-07T00:20:36.637Z,99.90
2019-06-07T00:23:05.070Z,99.90
2019-06-07T00:25:33.543Z,99.90
2019-06-07T00:28:01.953Z,99.90
2019-06-07T00:30:44.562Z,99.90
2019-06-07T00:33:00.590Z,99.90
2019-06-07T00:35:29.103Z,99.90
2019-06-07T00:37:57.589Z,99.90
2019-06-07T00:40:31.867Z,99.90
2019-06-07T00:42:56.201Z,99.90
2019-06-07T00:45:24.992Z,99.90
2019-06-07T00:47:53.534Z,99.90
2019-06-07T00:50:24.190Z,99.90
2019-06-07T00:53:14.799Z,99.90
2019-06-07T00:55:27.262Z,99.90
2019-06-07T00:57:52.852Z,99.90
2019-06-07T01:00:23.611Z,99.90
2019-06-07T01:02:51.802Z,99.90
2019-06-07T01:05:23.435Z,99.90
2019-06-07T01:07:50.435Z,99.90
2019-06-07T01:10:46.507Z,99.90
2019-06-07T01:12:49.336Z,99.90
2019-06-07T01:15:28.762Z,99.90
2019-06-07T01:18:33.194Z,99.90
2019-06-07T01:20:24.828Z,99.90
2019-06-07T01:22:53.833Z,99.90
2019-06-07T01:25:25.556Z,99.90
2019-06-07T01:27:52.410Z,99.90
2019-06-07T01:30:24.175Z,99.90
2019-06-07T01:32:51.598Z,99.90
2019-06-07T01:35:20.626Z,99.90
2019-06-07T01:37:50.171Z,99.90
2019-06-07T01:40:20.825Z,99.90
2019-06-07T01:42:50.085Z,99.90
2019-06-07T01:45:19.544Z,99.90
2019-06-07T01:47:48.313Z,99.90
2019-06-07T01:50:17.760Z,99.90
2019-06-07T01:52:47.211Z,99.90
2019-06-07T01:55:16.087Z,99.90
2019-06-07T01:57:48.290Z,99.90
2019-06-07T02:00:15.238Z,99.90
2019-06-07T02:02:43.638Z,99.90
2019-06-07T02:05:12.122Z,99.90
2019-06-07T02:07:40.533Z,99.90
2019-06-07T02:10:09.689Z,99.90
2019-06-07T02:12:43.125Z,99.90
2019-06-07T02:15:09.178Z,99.90
2019-06-07T02:17:38.054Z,99.90
2019-06-07T02:20:07.712Z,99.90
2019-06-07T02:22:36.223Z,99.90
2019-06-07T02:25:35.299Z,99.90
2019-06-07T02:27:36.178Z,99.90
2019-06-07T02:30:37.303Z,99.90
2019-06-07T02:32:37.305Z,99.90
2019-06-07T02:35:06.493Z,99.90
2019-06-07T02:37:36.754Z,99.90
2019-06-07T02:40:07.060Z,99.90
2019-06-07T02:42:41.774Z,99.90
2019-06-07T02:45:07.917Z,99.90
2019-06-07T02:47:38.286Z,99.90
2019-06-07T02:50:13.100Z,99.90
2019-06-07T02:52:42.165Z,99.90
2019-06-07T02:55:12.003Z,99.90
2019-06-07T02:57:42.054Z,99.90
2019-06-07T03:00:43.115Z,99.90
2019-06-07T03:02:46.192Z,99.90
2019-06-07T03:05:14.683Z,99.90
2019-06-07T03:07:45.858Z,99.90
2019-06-07T03:10:14.683Z,99.90
2019-06-07T03:12:44.229Z,99.90
2019-06-07T03:15:32.301Z,99.90
2019-06-07T03:18:03.371Z,99.90
2019-06-07T03:20:34.583Z,99.90
2019-06-07T03:23:05.012Z,99.90
2019-06-07T03:25:39.112Z,99.90
2019-06-07T03:28:07.879Z,99.90
2019-06-07T03:30:48.798Z,99.90
2019-06-07T03:33:06.442Z,99.90
2019-06-07T03:35:37.327Z,99.90
2019-06-07T03:38:05.027Z,99.90
2019-06-07T03:40:36.883Z,99.90
2019-06-07T03:43:03.618Z,99.90
2019-06-07T03:45:33.129Z,99.90
2019-06-07T03:48:02.328Z,99.90
2019-06-07T03:50:32.348Z,99.90
2019-06-07T03:53:00.881Z,99.90
2019-06-07T03:55:30.434Z,99.90
2019-06-07T03:58:30.695Z,99.90
2019-06-07T04:00:32.955Z,99.90
2019-06-07T04:02:59.760Z,99.90
2019-06-07T04:05:28.756Z,99.90
2019-06-07T04:07:58.334Z,99.90
2019-06-07T04:10:44.681Z,99.90
2019-06-07T04:12:56.963Z,99.90
2019-06-07T04:15:25.421Z,99.90
2019-06-07T04:18:01.776Z,99.90
2019-06-07T04:20:24.079Z,99.90
2019-06-07T04:22:52.494Z,99.90
2019-06-07T04:25:20.918Z,99.90
2019-06-07T04:27:49.340Z,99.90
2019-06-07T04:30:20.916Z,99.90
2019-06-07T04:32:49.330Z,99.90
2019-06-07T04:35:17.740Z,99.90
2019-06-07T04:37:46.792Z,99.90
2019-06-07T04:40:15.419Z,99.90
2019-06-07T04:42:45.653Z,99.90
2019-06-07T04:45:33.244Z,99.90
2019-06-07T04:47:46.108Z,99.90
2019-06-07T04:50:14.518Z,99.90
2019-06-07T04:52:45.394Z,99.90
2019-06-07T04:55:13.080Z,99.90
2019-06-07T04:57:43.087Z,99.90
2019-06-07T05:00:46.305Z,99.90
2019-06-07T05:02:43.458Z,99.90
2019-06-07T05:05:12.473Z,99.90
2019-06-07T05:07:46.076Z,99.90
2019-06-07T05:10:11.219Z,99.90
2019-06-07T05:12:43.788Z,99.90
2019-06-07T05:15:09.822Z,99.90
2019-06-07T05:17:42.655Z,99.90
2019-06-07T05:20:08.550Z,99.90
2019-06-07T05:22:42.069Z,99.90
2019-06-07T05:25:07.195Z,99.90
2019-06-07T05:27:38.329Z,99.90
2019-06-07T05:30:13.567Z,99.90
2019-06-07T05:32:43.663Z,99.90
2019-06-07T05:35:10.101Z,99.90
2019-06-07T05:37:41.796Z,99.90
2019-06-07T05:40:10.745Z,99.90
2019-06-07T05:42:43.316Z,99.90
2019-06-07T05:45:09.774Z,99.90
2019-06-07T05:47:43.649Z,99.90
2019-06-07T05:50:38.001Z,99.90
2019-06-07T05:52:42.180Z,99.90
2019-06-07T05:55:09.022Z,99.90
2019-06-07T05:57:40.468Z,99.90
2019-06-07T06:00:10.293Z,99.90
2019-06-07T06:02:58.661Z,99.90
2019-06-07T06:05:08.871Z,99.90
2019-06-07T06:07:41.239Z,99.90
2019-06-07T06:10:08.877Z,99.90
2019-06-07T06:12:42.175Z,99.90
2019-06-07T06:15:07.749Z,99.90
2019-06-07T06:17:37.697Z,99.90
2019-06-07T06:20:06.946Z,99.90
2019-06-07T06:22:37.419Z,99.90
2019-06-07T06:30:10.770Z,99.90
2019-06-07T06:32:42.907Z,99.90
2019-06-07T06:35:09.999Z,99.90
2019-06-07T06:37:41.927Z,99.90
2019-06-07T06:40:09.597Z,99.90
2019-06-07T06:42:38.063Z,99.90
2019-06-07T06:45:09.097Z,99.90
2019-06-07T06:47:38.258Z,99.90
2019-06-07T06:50:08.199Z,99.90
2019-06-07T06:52:36.703Z,99.90
2019-06-07T06:55:07.829Z,99.90
2019-06-07T06:57:36.233Z,99.90
2019-06-07T07:00:07.363Z,99.90
2019-06-07T07:03:30.204Z,99.90
2019-06-07T07:05:07.146Z,99.90
2019-06-07T07:07:35.664Z,99.90
2019-06-07T07:10:06.198Z,99.90
2019-06-07T07:12:35.576Z,99.90
2019-06-07T07:15:10.039Z,99.90
2019-06-07T07:17:52.700Z,99.90
2019-06-07T07:20:08.927Z,99.90
2019-06-07T07:22:37.334Z,99.90
2019-06-07T07:25:07.095Z,99.90
2019-06-07T07:27:35.569Z,99.90
2019-06-07T07:32:38.999Z,99.90
2019-06-07T07:35:07.763Z,99.90
2019-06-07T07:37:36.176Z,99.90
2019-06-07T07:40:54.901Z,99.90
2019-06-07T07:42:38.075Z,99.90
2019-06-07T07:45:06.948Z,99.90
2019-06-07T07:47:35.374Z,99.90
2019-06-07T07:50:06.481Z,99.90
2019-06-07T07:52:34.886Z,99.90
2019-06-07T07:55:04.780Z,99.90
2019-06-07T07:57:33.261Z,99.90
2019-06-07T08:00:36.725Z,99.90
2019-06-07T08:02:31.986Z,99.90
2019-06-07T08:05:21.884Z,99.90
2019-06-07T08:07:30.725Z,99.90
2019-06-07T08:10:03.383Z,99.90
2019-06-07T08:12:29.451Z,97.60
2019-06-07T08:15:02.837Z,91.40
2019-06-07T08:17:28.059Z,80.20
2019-06-07T08:19:57.555Z,70.30
2019-06-07T08:22:26.262Z,71.30
2019-06-07T08:24:55.975Z,75.30
2019-06-07T08:27:26.743Z,77.50
2019-06-07T08:30:18.458Z,76.90
2019-06-07T08:32:25.403Z,72.60
2019-06-07T08:35:01.580Z,72.30
2019-06-07T08:37:54.341Z,73.50
2019-06-07T08:39:57.565Z,77.10
2019-06-07T08:42:36.588Z,72.40
2019-06-07T08:45:01.591Z,69.20
2019-06-07T08:47:24.711Z,63.00
2019-06-07T08:49:56.810Z,65.00
2019-06-07T08:52:23.266Z,67.80
2019-06-07T08:54:52.400Z,63.40
2019-06-07T08:57:22.129Z,65.80
2019-06-07T08:59:52.885Z,60.00
2019-06-07T09:02:23.665Z,62.20
2019-06-07T09:04:54.658Z,61.80
2019-06-07T09:07:22.160Z,57.70
2019-06-07T09:09:53.798Z,57.50
2019-06-07T09:12:21.052Z,55.30
2019-06-07T09:15:06.683Z,55.70
2019-06-07T09:17:19.603Z,52.40
2019-06-07T09:19:48.015Z,49.30
2019-06-07T09:22:16.492Z,46.70
2019-06-07T09:24:44.910Z,48.20
2019-06-07T09:27:13.975Z,49.70
2019-06-07T09:29:43.851Z,47.80
2019-06-07T09:32:18.178Z,47.80
2019-06-07T09:34:42.471Z,49.50
2019-06-07T09:38:03.053Z,46.90
2019-06-07T09:39:41.131Z,45.60
2019-06-07T09:42:12.386Z,44.80
2019-06-07T09:44:39.691Z,44.70
2019-06-07T09:47:30.646Z,44.80
2019-06-07T09:49:38.266Z,45.80
2019-06-07T09:52:09.119Z,43.80
2019-06-07T09:55:06.154Z,44.10
2019-06-07T09:57:15.840Z,44.20
2019-06-07T09:59:38.514Z,47.40
2019-06-07T10:02:13.197Z,48.00
2019-06-07T10:04:37.301Z,48.40
2019-06-07T10:07:17.201Z,49.30
2019-06-07T10:12:06.524Z,48.90
2019-06-07T10:14:35.006Z,48.00
2019-06-07T10:17:03.472Z,49.30
2019-06-07T10:19:31.937Z,47.10
2019-06-07T10:22:01.429Z,45.10
2019-06-07T10:24:29.915Z,44.80
2019-06-07T10:26:59.588Z,45.80
2019-06-07T10:29:28.209Z,43.00
2019-06-07T10:31:56.680Z,42.10
2019-06-07T10:34:25.106Z,42.30
2019-06-07T10:36:53.515Z,42.50
2019-06-07T10:39:22.026Z,42.50
2019-06-07T10:41:52.153Z,43.60
2019-06-07T10:44:20.566Z,44.40
2019-06-07T10:46:48.983Z,43.90
2019-06-07T10:49:17.385Z,46.70
2019-06-07T10:51:45.845Z,49.50
2019-06-07T10:54:24.147Z,50.00
2019-06-07T10:56:44.750Z,48.50
2019-06-07T10:59:13.706Z,49.20
2019-06-07T11:01:42.627Z,49.70
2019-06-07T11:04:11.724Z,49.30
2019-06-07T11:06:40.318Z,47.20
2019-06-07T11:09:10.020Z,46.20
2019-06-07T11:11:38.509Z,46.40
2019-06-07T11:14:08.499Z,46.60
2019-06-07T11:16:37.110Z,45.60
2019-06-07T11:19:06.021Z,47.40
2019-06-07T11:21:34.706Z,46.70
2019-06-07T11:24:03.115Z,46.70
2019-06-07T11:26:31.523Z,45.10
2019-06-07T11:29:00.037Z,44.80
2019-06-07T11:31:28.588Z,45.40
2019-06-07T11:33:57.093Z,46.60
2019-06-07T11:36:25.567Z,46.30
2019-06-07T11:38:54.058Z,46.60
2019-06-07T11:41:22.466Z,48.30
2019-06-07T11:43:50.918Z,50.60
2019-06-07T11:46:19.333Z,51.10
2019-06-07T11:48:47.745Z,52.60
2019-06-07T11:51:16.155Z,51.70
2019-06-07T11:53:44.603Z,52.80
2019-06-07T11:56:13.989Z,53.40
2019-06-07T11:58:42.630Z,56.20
2019-06-07T12:01:11.842Z,54.30
2019-06-07T12:03:40.943Z,53.60
2019-06-07T12:06:09.977Z,51.60
2019-06-07T12:08:38.619Z,54.10
2019-06-07T12:11:08.049Z,54.20
2019-06-07T12:13:36.648Z,54.30
2019-06-07T12:16:05.129Z,54.70
2019-06-07T12:18:33.526Z,54.30
2019-06-07T12:21:01.935Z,53.80
2019-06-07T12:23:30.365Z,54.20
2019-06-07T12:25:58.761Z,53.90
2019-06-07T12:28:38.728Z,55.00
2019-06-07T12:31:07.342Z,56.80
2019-06-07T12:33:41.684Z,56.10
2019-06-07T12:36:07.571Z,57.40
2019-06-07T12:38:36.006Z,55.80
2019-06-07T12:41:04.609Z,55.10
2019-06-07T12:43:33.017Z,55.30
2019-06-07T12:46:01.562Z,55.10
2019-06-07T12:48:29.976Z,54.70
2019-06-07T12:50:58.434Z,54.70
2019-06-07T12:53:29.533Z,55.50
2019-06-07T12:56:00.219Z,57.90
2019-06-07T12:58:34.935Z,57.90
2019-06-07T13:00:59.799Z,55.10
2019-06-07T13:03:28.490Z,55.20
2019-06-07T13:05:56.919Z,54.60
2019-06-07T13:08:25.331Z,54.90
2019-06-07T13:10:53.741Z,54.90
2019-06-07T13:13:22.835Z,56.90
2019-06-07T13:15:52.341Z,58.00
2019-06-07T13:18:21.767Z,57.60
2019-06-07T13:20:55.225Z,55.60
2019-06-07T13:23:22.618Z,57.60
2019-06-07T13:25:51.157Z,56.80
2019-06-07T13:28:20.763Z,55.30
2019-06-07T13:30:49.378Z,56.40
2019-06-07T13:33:19.018Z,55.60
2019-06-07T13:35:47.484Z,56.20
2019-06-07T13:38:25.385Z,56.30
2019-06-07T13:40:54.938Z,56.50
2019-06-07T13:43:23.539Z,55.40
2019-06-07T13:45:52.073Z,54.90
2019-06-07T13:48:21.166Z,56.00
2019-06-07T13:50:50.026Z,55.40
2019-06-07T13:53:18.985Z,56.80
2019-06-07T13:55:47.491Z,55.60
2019-06-07T13:58:15.962Z,53.70
2019-06-07T14:00:44.546Z,55.50
2019-06-07T14:03:12.955Z,54.70
2019-06-07T14:05:41.374Z,54.10
2019-06-07T14:08:09.888Z,55.20
2019-06-07T14:10:38.302Z,54.40
2019-06-07T14:13:06.787Z,55.50
2019-06-07T14:15:35.200Z,55.20
2019-06-07T14:18:03.602Z,52.80
2019-06-07T14:20:34.629Z,51.60
2019-06-07T14:23:02.319Z,51.90
2019-06-07T14:25:31.406Z,52.60
2019-06-07T14:27:59.976Z,52.20
2019-06-07T14:30:28.980Z,54.40
2019-06-07T14:32:58.614Z,51.60
2019-06-07T14:35:27.139Z,51.40
2019-06-07T14:37:55.672Z,52.00
2019-06-07T14:40:25.325Z,52.40
2019-06-07T14:42:55.185Z,52.40
2019-06-07T14:45:23.765Z,52.90
2019-06-07T14:47:52.180Z,51.10
2019-06-07T14:50:21.642Z,52.30
2019-06-07T14:52:50.134Z,52.40
2019-06-07T14:55:18.891Z,53.10
2019-06-07T14:57:47.464Z,50.30
2019-06-07T15:00:16.530Z,51.40
2019-06-07T15:02:44.943Z,52.40
2019-06-07T15:05:13.689Z,51.30
2019-06-07T15:07:42.096Z,51.10
2019-06-07T15:10:11.014Z,52.60
2019-06-07T15:12:40.079Z,51.90
2019-06-07T15:15:09.198Z,52.90
2019-06-07T15:17:38.835Z,51.50
2019-06-07T15:20:08.134Z,53.50
2019-06-07T15:22:36.622Z,54.10
2019-06-07T15:25:06.773Z,51.00
2019-06-07T15:27:35.367Z,50.40
2019-06-07T15:32:35.206Z,51.60
2019-06-07T15:35:24.918Z,52.00
2019-06-07T15:37:54.902Z,53.30
2019-06-07T15:40:23.389Z,52.50
2019-06-07T15:45:27.513Z,53.60
2019-06-07T15:47:56.790Z,52.70
2019-06-07T15:50:28.603Z,55.30
2019-06-07T15:52:55.338Z,53.70
2019-06-07T15:55:23.924Z,53.00
2019-06-07T15:57:52.357Z,51.70
2019-06-07T16:00:21.267Z,51.20
2019-06-07T16:02:49.904Z,50.50
2019-06-07T16:05:18.751Z,51.90
2019-06-07T16:07:47.169Z,52.50
2019-06-07T16:10:17.586Z,53.10
2019-06-07T16:12:59.577Z,52.00
2019-06-07T16:20:21.546Z,52.40
2019-06-07T16:22:51.178Z,52.80
2019-06-07T16:25:19.810Z,53.10
2019-06-07T16:27:48.229Z,53.30
2019-06-07T16:30:17.384Z,53.10
2019-06-07T16:32:46.293Z,52.70
2019-06-07T16:35:15.322Z,51.30
2019-06-07T16:37:45.864Z,52.60
2019-06-07T16:40:14.901Z,52.70
2019-06-07T16:42:44.961Z,51.60
2019-06-07T16:45:14.309Z,51.10
2019-06-07T16:47:44.936Z,51.10
2019-06-07T16:50:13.756Z,52.30
2019-06-07T16:52:43.983Z,52.80
2019-06-07T16:55:13.907Z,52.00
2019-06-07T16:57:42.930Z,52.30
2019-06-07T17:00:13.809Z,52.70
2019-06-07T17:02:42.411Z,51.00
2019-06-07T17:05:11.358Z,52.30
2019-06-07T17:07:40.274Z,50.80
2019-06-07T17:10:12.200Z,50.50
2019-06-07T17:12:40.840Z,50.90
2019-06-07T17:15:14.250Z,51.30
2019-06-07T17:17:43.075Z,52.10
2019-06-07T17:20:12.080Z,51.80
2019-06-07T17:22:41.969Z,52.40
2019-06-07T17:25:11.758Z,52.70
2019-06-07T17:27:41.703Z,53.00
2019-06-07T17:30:11.609Z,52.10
2019-06-07T17:32:51.804Z,52.50
2019-06-07T17:35:10.473Z,51.90
2019-06-07T17:37:41.519Z,52.30
2019-06-07T17:40:09.588Z,52.30
2019-06-07T17:42:37.997Z,52.70
2019-06-07T17:45:09.309Z,53.10
2019-06-07T17:47:37.727Z,54.00
2019-06-07T17:50:09.353Z,53.60
2019-06-07T17:52:37.789Z,53.80
2019-06-07T17:55:08.037Z,54.10
2019-06-07T17:57:36.594Z,54.90
2019-06-07T18:02:40.541Z,54.60
2019-06-07T18:05:11.280Z,55.20
2019-06-07T18:07:39.825Z,55.50
2019-06-07T18:10:09.970Z,55.30
2019-06-07T18:12:38.379Z,56.00
2019-06-07T18:15:08.825Z,56.10
2019-06-07T18:17:37.303Z,56.30
2019-06-07T18:20:10.184Z,56.30
2019-06-07T18:22:38.604Z,56.50
2019-06-07T18:25:07.926Z,57.10
2019-06-07T18:27:36.342Z,57.60
2019-06-07T18:30:11.833Z,57.60
2019-06-07T18:32:37.196Z,57.90
2019-06-07T18:35:06.134Z,59.80
2019-06-07T18:37:34.566Z,58.60
2019-06-07T18:40:04.845Z,59.10
2019-06-07T18:42:33.264Z,59.40
2019-06-07T18:45:01.683Z,59.40
2019-06-07T18:47:30.381Z,60.00
2019-06-07T18:49:59.459Z,60.60
2019-06-07T18:52:29.761Z,60.80
2019-06-07T18:54:59.651Z,60.90
2019-06-07T18:57:28.215Z,61.30
2019-06-07T18:59:56.714Z,61.40
2019-06-07T19:02:25.121Z,61.90
2019-06-07T19:04:54.175Z,63.80
2019-06-07T19:07:24.183Z,62.70
2019-06-07T19:09:52.655Z,65.50
2019-06-07T19:12:21.145Z,63.70
2019-06-07T19:14:49.638Z,64.00
2019-06-07T19:17:18.070Z,65.20
2019-06-07T19:19:46.491Z,64.30
2019-06-07T19:22:14.955Z,65.20
2019-06-07T19:24:43.371Z,67.50
2019-06-07T19:27:11.856Z,69.30
2019-06-07T19:29:40.266Z,72.00
2019-06-07T19:32:08.690Z,71.90
2019-06-07T19:34:37.097Z,75.00
2019-06-07T19:37:05.514Z,81.00
2019-06-07T19:39:33.922Z,91.80
2019-06-07T19:42:02.435Z,96.00
2019-06-07T19:44:30.894Z,99.90
2019-06-07T19:47:00.491Z,98.60
2019-06-07T19:49:30.628Z,99.90
2019-06-07T19:51:59.135Z,99.90
2019-06-07T19:54:27.612Z,99.90
2019-06-07T19:56:57.413Z,99.90
2019-06-07T19:59:25.966Z,99.90
2019-06-07T20:01:55.678Z,99.90
2019-06-07T20:04:24.359Z,99.90
2019-06-07T20:06:56.207Z,99.90
2019-06-07T20:09:24.702Z,99.90
2019-06-07T20:11:54.356Z,99.90
2019-06-07T20:14:22.999Z,99.90
2019-06-07T20:16:53.109Z,99.90
2019-06-07T20:19:21.585Z,99.90
2019-06-07T20:21:49.994Z,99.90
2019-06-07T20:24:27.107Z,99.90
2019-06-07T20:26:48.674Z,99.90
2019-06-07T20:29:25.983Z,99.90
2019-06-07T20:31:47.239Z,99.90
2019-06-07T20:34:15.650Z,99.90
2019-06-07T20:36:45.915Z,99.90
2019-06-07T20:39:14.530Z,99.90
2019-06-07T20:41:43.167Z,99.90
2019-06-07T20:44:11.739Z,99.90
2019-06-07T20:46:40.199Z,99.90
2019-06-07T20:49:08.614Z,99.90
2019-06-07T20:51:37.017Z,99.90
2019-06-07T20:54:07.352Z,99.90
2019-06-07T20:56:36.031Z,99.90
2019-06-07T20:59:04.934Z,99.90
2019-06-07T21:01:33.443Z,99.90
2019-06-07T21:04:03.049Z,99.90
2019-06-07T21:06:31.607Z,99.90
2019-06-07T21:09:01.397Z,99.90
2019-06-07T21:11:30.038Z,99.90
2019-06-07T21:13:58.435Z,99.90
2019-06-07T21:16:26.842Z,99.90
2019-06-07T21:18:55.249Z,99.90
2019-06-07T21:21:23.653Z,99.90
2019-06-07T21:23:52.066Z,99.90
2019-06-07T21:26:20.477Z,99.90
2019-06-07T21:28:48.909Z,99.90
2019-06-07T21:31:17.381Z,99.90
2019-06-07T21:33:45.790Z,99.90
2019-06-07T21:36:14.206Z,99.90
2019-06-07T21:38:42.609Z,99.90
2019-06-07T21:41:12.459Z,99.90
2019-06-07T21:43:41.110Z,99.90
2019-06-07T21:46:15.523Z,99.90
2019-06-07T21:48:39.684Z,99.90
2019-06-07T21:51:08.654Z,99.90
2019-06-07T21:53:37.172Z,99.90
2019-06-07T21:56:06.871Z,99.90
2019-06-07T21:58:35.567Z,99.90
2019-06-07T22:01:08.479Z,99.90
2019-06-07T22:03:37.187Z,99.90
2019-06-07T22:06:05.743Z,99.90
2019-06-07T22:08:34.125Z,99.90
2019-06-07T22:11:03.674Z,99.90
2019-06-07T22:13:32.238Z,99.90
2019-06-07T22:16:00.649Z,99.90
2019-06-07T22:18:29.137Z,99.90
2019-06-07T22:20:57.548Z,99.90
2019-06-07T22:23:25.945Z,99.90
2019-06-07T22:25:54.370Z,99.90
2019-06-07T22:28:22.854Z,99.90
2019-06-07T22:30:51.264Z,99.90
2019-06-07T22:33:19.666Z,99.90
2019-06-07T22:35:48.096Z,99.90
2019-06-07T22:38:16.561Z,99.90
2019-06-07T22:40:44.977Z,99.90
2019-06-07T22:43:13.889Z,99.90
2019-06-07T22:45:42.413Z,99.90
2019-06-07T22:48:11.334Z,99.90
2019-06-07T22:50:39.975Z,99.90
2019-06-07T22:53:09.467Z,99.90
2019-06-07T22:55:38.066Z,99.90
2019-06-07T22:58:07.941Z,99.90
2019-06-07T23:00:38.078Z,99.90
2019-06-07T23:03:06.517Z,99.90
2019-06-07T23:05:34.933Z,99.90
2019-06-07T23:08:03.340Z,99.90
2019-06-07T23:10:31.769Z,99.90
2019-06-07T23:13:00.212Z,99.90
2019-06-07T23:15:28.626Z,99.90
2019-06-07T23:17:57.034Z,99.90
2019-06-07T23:20:25.527Z,99.90
2019-06-07T23:22:53.918Z,99.90
2019-06-07T23:25:24.479Z,99.90
2019-06-07T23:27:52.466Z,99.90
2019-06-07T23:30:21.658Z,99.90
2019-06-07T23:32:50.259Z,99.90
2019-06-07T23:35:19.045Z,99.90
2019-06-07T23:37:47.566Z,99.90
2019-06-07T23:40:17.409Z,99.90
2019-06-07T23:42:46.014Z,99.90
2019-06-07T23:45:15.548Z,99.90
2019-06-07T23:47:44.058Z,99.90
2019-06-07T23:50:13.658Z,99.90
2019-06-07T23:52:42.273Z,99.90
2019-06-07T23:55:11.828Z,99.90
2019-06-07T23:57:40.342Z,99.90
